Time;durP1;ratioP1;P1;durP2;ratioP2;P2;SDS_P1;SDS_P2;PMS_P1;PMS_P2;Temp;Humidity;BMP_temperature;BMP_pressure;BME280_temperature;BME280_humidity;BME280_pressure;Samples;Min_cycle;Max_cycle;Signal;HPM_P1;HPM_P2
2024/04/15 00:01:57;;;;;;;7.93;2.30;;;6.40;99.90;;;;;;5459349;26;20087;-84
2024/04/15 00:04:24;;;;;;;13.95;2.30;;;6.40;99.90;;;;;;5451017;26;20007;-84
2024/04/15 00:06:51;;;;;;;12.13;2.53;;;7.20;99.90;;;;;;5478202;26;20359;-84
2024/04/15 00:09:17;;;;;;;7.78;2.15;;;6.40;99.90;;;;;;5423973;26;20003;-84
2024/04/15 00:11:46;;;;;;;11.07;2.22;;;7.20;99.90;;;;;;5446834;26;20359;-84
2024/04/15 00:14:13;;;;;;;8.93;2.30;;;6.70;99.90;;;;;;5439837;26;20003;-84
2024/04/15 00:16:40;;;;;;;11.70;2.42;;;6.20;99.90;;;;;;5459006;26;20026;-84
2024/04/15 00:19:07;;;;;;;11.70;2.40;;;6.90;99.90;;;;;;5490699;26;20007;-84
2024/04/15 00:21:34;;;;;;;8.48;1.95;;;6.10;99.90;;;;;;5468348;26;20345;-84
2024/04/15 00:24:02;;;;;;;7.55;1.83;;;6.40;99.90;;;;;;5457466;26;20014;-84
2024/04/15 00:26:29;;;;;;;12.73;2.28;;;6.10;99.90;;;;;;5457882;26;20078;-84
2024/04/15 00:28:56;;;;;;;9.45;1.77;;;6.00;99.90;;;;;;5401968;26;20015;-84
2024/04/15 00:31:22;;;;;;;8.38;1.88;;;6.00;99.90;;;;;;5427021;26;20022;-84
2024/04/15 00:33:49;;;;;;;11.52;2.13;;;6.70;99.90;;;;;;5442827;26;20023;-84
2024/04/15 00:36:16;;;;;;;11.52;2.05;;;6.20;99.90;;;;;;5471884;26;20362;-84
2024/04/15 00:38:43;;;;;;;6.88;2.22;;;6.00;99.90;;;;;;5429581;26;20007;-84
2024/04/15 00:41:09;;;;;;;8.18;1.95;;;6.00;99.90;;;;;;5481617;26;20019;-84
2024/04/15 00:43:36;;;;;;;10.20;2.30;;;6.10;99.90;;;;;;5460067;26;20007;-84
2024/04/15 00:46:03;;;;;;;10.57;2.58;;;5.90;99.90;;;;;;5466294;26;20007;-84
2024/04/15 00:48:31;;;;;;;7.28;2.00;;;5.90;99.90;;;;;;5434696;26;20021;-84
2024/04/15 00:50:59;;;;;;;10.40;2.53;;;5.90;99.90;;;;;;5460281;26;20031;-84
2024/04/15 00:53:26;;;;;;;10.93;2.05;;;5.80;99.90;;;;;;5461941;26;20026;-84
2024/04/15 00:55:56;;;;;;;8.30;2.45;;;6.40;99.90;;;;;;5426387;26;20007;-84
2024/04/15 00:58:25;;;;;;;10.88;2.65;;;5.80;99.90;;;;;;5433769;26;20019;-84
2024/04/15 01:00:53;;;;;;;14.13;2.85;;;6.10;99.90;;;;;;5432203;26;20410;-84
2024/04/15 01:03:21;;;;;;;6.60;1.80;;;5.80;99.90;;;;;;5426178;26;20352;-84
2024/04/15 01:05:49;;;;;;;8.13;2.25;;;6.70;99.90;;;;;;5481214;26;20023;-84
2024/04/15 01:08:17;;;;;;;11.13;2.25;;;6.50;99.90;;;;;;5448256;26;20030;-84
2024/04/15 01:11:04;;;;;;;6.25;1.92;;;5.70;99.90;;;;;;5432895;26;20018;-84
2024/04/15 01:13:31;;;;;;;12.30;2.70;;;6.50;99.90;;;;;;5492397;26;20015;-84
2024/04/15 01:15:58;;;;;;;9.18;2.00;;;5.70;99.90;;;;;;5444476;26;20019;-84
2024/04/15 01:18:25;;;;;;;8.45;1.95;;;5.60;99.90;;;;;;5480408;26;20078;-84
2024/04/15 01:20:55;;;;;;;10.82;2.53;;;5.60;99.90;;;;;;5474938;26;20036;-84
2024/04/15 01:23:23;;;;;;;12.02;1.90;;;5.60;99.90;;;;;;5426061;26;20026;-84
2024/04/15 01:25:50;;;;;;;10.50;2.47;;;5.60;99.90;;;;;;5455071;26;20007;-84
2024/04/15 01:28:19;;;;;;;11.90;2.17;;;5.50;99.90;;;;;;5442939;26;20023;-84
2024/04/15 01:30:47;;;;;;;8.15;1.92;;;5.70;99.90;;;;;;5435226;26;20478;-84
2024/04/15 01:33:14;;;;;;;10.45;2.33;;;5.50;99.90;;;;;;5441332;26;20015;-84
2024/04/15 01:35:41;;;;;;;12.65;2.30;;;5.80;99.90;;;;;;5447062;26;20021;-84
2024/04/15 01:38:07;;;;;;;9.15;1.90;;;5.90;99.90;;;;;;5454116;26;20004;-84
2024/04/15 01:40:36;;;;;;;9.00;2.65;;;5.60;99.90;;;;;;5436724;26;20419;-84
2024/04/15 01:43:02;;;;;;;6.90;2.00;;;5.50;99.90;;;;;;5461462;26;20007;-84
2024/04/15 01:45:29;;;;;;;16.75;2.70;;;5.50;99.90;;;;;;5449490;26;20035;-84
2024/04/15 01:47:56;;;;;;;9.02;2.25;;;5.50;99.90;;;;;;5449437;26;20018;-84
2024/04/15 01:50:23;;;;;;;12.52;2.30;;;5.50;99.90;;;;;;5427960;26;20003;-84
2024/04/15 01:52:51;;;;;;;13.05;2.10;;;5.40;99.90;;;;;;5458560;26;20007;-84
2024/04/15 01:55:17;;;;;;;9.82;2.33;;;5.40;99.90;;;;;;5471080;26;20352;-84
2024/04/15 01:57:44;;;;;;;11.70;2.33;;;5.70;99.90;;;;;;5478591;26;20517;-84
2024/04/15 02:00:11;;;;;;;8.60;2.05;;;5.40;99.90;;;;;;5438570;26;20035;-84
2024/04/15 02:02:38;;;;;;;9.98;2.00;;;5.40;99.90;;;;;;5428342;26;20015;-84
2024/04/15 02:05:07;;;;;;;6.45;2.20;;;6.10;99.90;;;;;;5425360;26;20088;-84
2024/04/15 02:07:35;;;;;;;8.52;2.22;;;5.30;99.90;;;;;;5492910;26;20051;-84
2024/04/15 02:10:02;;;;;;;9.50;2.45;;;5.40;99.90;;;;;;5461187;26;20018;-84
2024/04/15 02:12:31;;;;;;;8.90;2.38;;;5.30;99.90;;;;;;5430399;26;20008;-84
2024/04/15 02:14:57;;;;;;;8.00;2.10;;;5.30;99.90;;;;;;5441800;26;20110;-84
2024/04/15 02:17:24;;;;;;;8.43;2.60;;;5.30;99.90;;;;;;5445587;26;20047;-84
2024/04/15 02:19:52;;;;;;;13.88;2.25;;;5.40;99.90;;;;;;5461542;26;20002;-84
2024/04/15 02:22:19;;;;;;;6.65;2.30;;;5.30;99.90;;;;;;5443840;26;20007;-84
2024/04/15 02:24:46;;;;;;;10.38;2.60;;;5.80;99.90;;;;;;5432163;26;20369;-84
2024/04/15 02:27:13;;;;;;;11.23;2.58;;;6.00;99.90;;;;;;5482752;26;20006;-84
2024/04/15 02:29:40;;;;;;;11.25;2.38;;;5.20;99.90;;;;;;5446370;26;20022;-84
2024/04/15 02:32:07;;;;;;;10.38;2.40;;;5.70;99.90;;;;;;5448601;26;20051;-84
2024/04/15 02:34:34;;;;;;;6.60;2.08;;;5.20;99.90;;;;;;5488282;26;20455;-84
2024/04/15 02:37:00;;;;;;;12.38;2.58;;;5.90;99.90;;;;;;5467727;26;20015;-84
2024/04/15 02:39:27;;;;;;;10.88;2.10;;;5.20;99.90;;;;;;5460447;26;20011;-84
2024/04/15 02:41:54;;;;;;;12.73;2.22;;;5.20;99.90;;;;;;5431246;26;20007;-84
2024/04/15 02:44:21;;;;;;;11.30;2.45;;;5.50;99.90;;;;;;5425271;26;20008;-84
2024/04/15 02:46:48;;;;;;;10.48;2.53;;;5.20;99.90;;;;;;5430529;26;20007;-84
2024/04/15 02:49:14;;;;;;;8.20;2.15;;;5.20;99.90;;;;;;5444958;26;20522;-84
2024/04/15 02:51:41;;;;;;;10.77;2.28;;;5.10;99.90;;;;;;5460177;26;20491;-84
2024/04/15 02:54:09;;;;;;;10.95;2.42;;;5.10;99.90;;;;;;5430711;26;20003;-84
2024/04/15 02:56:37;;;;;;;6.85;2.00;;;5.20;99.90;;;;;;5449473;26;20021;-84
2024/04/15 02:59:03;;;;;;;11.70;2.47;;;5.10;99.90;;;;;;5460070;26;20020;-84
2024/04/15 03:01:30;;;;;;;19.60;3.17;;;5.10;99.90;;;;;;5491640;26;20543;-84
2024/04/15 03:03:57;;;;;;;10.90;2.45;;;5.20;99.90;;;;;;5447519;26;20014;-84
2024/04/15 03:06:44;;;;;;;14.40;3.25;;;5.20;99.90;;;;;;5440522;26;20080;-84
2024/04/15 03:09:11;;;;;;;9.13;2.10;;;5.40;99.90;;;;;;5447714;26;20015;-84
2024/04/15 03:11:38;;;;;;;10.77;2.95;;;5.90;99.90;;;;;;5458851;26;20456;-84
2024/04/15 03:14:05;;;;;;;11.38;2.35;;;5.80;99.90;;;;;;5459656;26;20017;-84
2024/04/15 03:16:51;;;;;;;5.93;2.47;;;5.40;99.90;;;;;;5429220;26;20004;-84
2024/04/15 03:19:18;;;;;;;12.25;2.45;;;6.20;99.90;;;;;;5463980;26;20007;-84
2024/04/15 03:21:48;;;;;;;11.70;2.83;;;5.60;99.90;;;;;;5453832;26;20015;-84
2024/04/15 03:24:15;;;;;;;10.88;2.60;;;5.70;99.90;;;;;;5434004;26;20084;-84
2024/04/15 03:26:43;;;;;;;8.80;2.88;;;5.90;99.90;;;;;;5435731;26;20015;-84
2024/04/15 03:29:10;;;;;;;10.52;2.50;;;5.80;99.90;;;;;;5446375;26;20015;-84
2024/04/15 03:31:43;;;;;;;15.95;2.70;;;5.80;99.90;;;;;;5487557;26;20078;-84
2024/04/15 03:34:09;;;;;;;11.35;2.85;;;6.50;99.90;;;;;;5457302;26;20011;-84
2024/04/15 03:36:36;;;;;;;10.93;3.28;;;6.70;99.90;;;;;;5443938;26;20007;-84
2024/04/15 03:39:05;;;;;;;11.65;2.65;;;6.10;99.90;;;;;;5429641;26;20413;-84
2024/04/15 03:41:34;;;;;;;10.45;2.78;;;6.10;99.90;;;;;;5424107;26;20022;-84
2024/04/15 03:44:00;;;;;;;8.55;2.17;;;6.60;99.90;;;;;;5453632;26;20014;-84
2024/04/15 03:46:27;;;;;;;11.23;2.75;;;6.60;99.90;;;;;;5457815;26;20007;-84
2024/04/15 03:48:54;;;;;;;9.02;2.38;;;6.30;99.90;;;;;;5398201;26;20007;-84
2024/04/15 03:51:41;;;;;;;12.82;2.72;;;6.50;99.90;;;;;;5444713;26;20010;-85
2024/04/15 03:54:08;;;;;;;9.25;2.40;;;6.30;99.90;;;;;;5436038;26;20067;-84
2024/04/15 03:56:35;;;;;;;7.82;2.10;;;6.30;99.90;;;;;;5466246;26;20430;-84
2024/04/15 03:59:02;;;;;;;10.25;2.35;;;6.30;99.90;;;;;;5491163;26;20023;-84
2024/04/15 04:01:29;;;;;;;8.13;2.40;;;6.70;99.90;;;;;;5423693;26;20007;-84
2024/04/15 04:04:10;;;;;;;13.15;2.80;;;6.30;99.90;;;;;;5439207;26;20019;-84
2024/04/15 04:06:38;;;;;;;11.63;2.28;;;6.30;99.90;;;;;;5459795;26;20018;-84
2024/04/15 04:09:04;;;;;;;10.02;2.90;;;6.40;99.90;;;;;;5439835;26;20386;-84
2024/04/15 04:11:31;;;;;;;9.68;2.50;;;6.40;99.90;;;;;;5470164;26;20007;-84
2024/04/15 04:13:58;;;;;;;7.72;2.63;;;6.80;99.90;;;;;;5450699;26;22743;-84
2024/04/15 04:16:25;;;;;;;10.18;2.22;;;7.30;99.90;;;;;;5451196;26;20019;-84
2024/04/15 04:18:51;;;;;;;10.63;2.78;;;6.40;99.90;;;;;;5437302;26;20007;-84
2024/04/15 04:21:38;;;;;;;7.25;2.58;;;6.40;99.90;;;;;;5439152;26;20532;-84
2024/04/15 04:24:05;;;;;;;8.48;2.50;;;6.40;99.90;;;;;;5442460;26;20020;-84
2024/04/15 04:26:32;;;;;;;9.77;2.45;;;6.40;99.90;;;;;;5479982;26;20007;-84
2024/04/15 04:28:59;;;;;;;9.57;2.50;;;6.40;99.90;;;;;;5480449;26;20006;-84
2024/04/15 04:31:26;;;;;;;12.18;2.28;;;6.80;99.90;;;;;;5458849;26;20021;-84
2024/04/15 04:33:52;;;;;;;6.90;2.20;;;6.50;99.90;;;;;;5434457;26;20010;-84
2024/04/15 04:36:19;;;;;;;8.30;2.40;;;6.50;99.90;;;;;;5434563;26;20008;-84
2024/04/15 04:38:46;;;;;;;10.20;2.83;;;7.00;99.90;;;;;;5481020;26;20008;-84
2024/04/15 04:41:14;;;;;;;5.90;2.25;;;6.50;99.90;;;;;;5452671;26;20022;-84
2024/04/15 04:43:40;;;;;;;9.05;2.33;;;6.90;99.90;;;;;;5453648;26;20079;-85
2024/04/15 04:46:09;;;;;;;12.68;2.38;;;6.60;99.90;;;;;;5452932;26;20007;-85
2024/04/15 04:48:35;;;;;;;8.68;2.53;;;6.60;99.90;;;;;;5454749;26;20006;-84
2024/04/15 04:51:09;;;;;;;4.40;2.20;;;6.70;99.90;;;;;;5429101;26;20007;-84
2024/04/15 04:53:36;;;;;;;6.25;2.28;;;6.60;99.90;;;;;;5457977;26;21688;-84
2024/04/15 04:56:14;;;;;;;11.18;2.55;;;6.60;99.90;;;;;;5436093;26;20004;-84
2024/04/15 04:58:42;;;;;;;7.35;2.35;;;6.60;99.90;;;;;;5483284;26;20456;-84
2024/04/15 05:01:17;;;;;;;8.98;2.45;;;6.80;99.90;;;;;;5454922;26;20015;-85
2024/04/15 05:03:49;;;;;;;5.88;2.00;;;6.70;99.90;;;;;;5483050;26;20047;-85
2024/04/15 05:06:17;;;;;;;9.85;2.15;;;6.80;99.90;;;;;;5473240;26;20840;-84
2024/04/15 05:08:46;;;;;;;8.43;2.05;;;7.00;99.90;;;;;;5457779;26;20007;-84
2024/04/15 05:11:13;;;;;;;6.32;2.15;;;6.80;99.90;;;;;;5422050;26;20022;-85
2024/04/15 05:13:40;;;;;;;6.78;2.38;;;7.20;99.90;;;;;;5457717;26;20010;-84
2024/04/15 05:16:08;;;;;;;8.18;2.40;;;6.90;99.90;;;;;;5451523;26;20007;-85
2024/04/15 05:18:37;;;;;;;6.45;2.15;;;6.80;99.90;;;;;;5441917;26;20457;-84
2024/04/15 05:21:05;;;;;;;5.97;1.90;;;6.80;99.90;;;;;;5452825;26;20039;-85
2024/04/15 05:23:31;;;;;;;9.35;2.42;;;6.80;99.90;;;;;;5422248;26;20008;-85
2024/04/15 05:25:59;;;;;;;8.88;2.53;;;7.70;99.90;;;;;;5461235;26;20019;-84
2024/04/15 05:28:26;;;;;;;10.60;2.55;;;7.50;99.90;;;;;;5445413;26;20480;-85
2024/04/15 05:30:54;;;;;;;7.22;2.33;;;7.30;99.90;;;;;;5452140;26;20023;-85
2024/04/15 05:33:22;;;;;;;7.00;1.90;;;6.90;99.90;;;;;;5454625;26;20007;-85
2024/04/15 05:35:49;;;;;;;10.95;2.78;;;6.90;99.90;;;;;;5452121;26;20007;-85
2024/04/15 05:38:16;;;;;;;8.70;2.60;;;7.80;99.90;;;;;;5454579;26;20456;-85
2024/04/15 05:40:43;;;;;;;8.48;2.60;;;7.10;99.90;;;;;;5454904;26;20019;-85
2024/04/15 05:43:11;;;;;;;8.65;2.45;;;7.30;99.90;;;;;;5452402;26;20343;-85
2024/04/15 05:45:37;;;;;;;6.82;2.08;;;7.90;99.90;;;;;;5490997;26;20091;-85
2024/04/15 05:48:05;;;;;;;11.07;2.33;;;7.80;99.90;;;;;;5419130;26;20008;-85
2024/04/15 05:50:32;;;;;;;9.25;2.80;;;7.00;99.90;;;;;;5447982;26;20034;-85
2024/04/15 05:52:59;;;;;;;11.70;2.67;;;7.00;99.90;;;;;;5451962;26;20021;-91
2024/04/15 05:55:25;;;;;;;12.15;2.80;;;7.00;99.90;;;;;;5476909;26;20004;-88
2024/04/15 05:57:53;;;;;;;8.13;2.45;;;7.00;99.90;;;;;;5450273;26;20122;-88
2024/04/15 06:00:20;;;;;;;7.10;2.72;;;7.10;99.90;;;;;;5473116;26;20007;-87
2024/04/15 06:02:47;;;;;;;8.65;2.40;;;7.20;99.90;;;;;;5456417;26;20046;-87
2024/04/15 06:05:14;;;;;;;8.23;2.67;;;7.20;99.90;;;;;;5497059;26;20084;-87
2024/04/15 06:07:41;;;;;;;9.88;2.97;;;7.30;99.90;;;;;;5462016;26;20017;-87
2024/04/15 06:10:09;;;;;;;7.80;2.63;;;7.30;99.90;;;;;;5486486;26;20010;-86
2024/04/15 06:12:36;;;;;;;7.53;2.95;;;7.40;99.90;;;;;;5460457;26;20010;-86
2024/04/15 06:15:03;;;;;;;10.48;2.80;;;7.80;99.90;;;;;;5459561;26;20526;-86
2024/04/15 06:17:30;;;;;;;9.77;3.10;;;7.60;99.90;;;;;;5460555;26;20006;-86
2024/04/15 06:19:57;;;;;;;8.60;3.22;;;7.80;99.90;;;;;;5460705;26;20007;-86
2024/04/15 06:22:24;;;;;;;6.80;2.75;;;7.90;99.90;;;;;;5467493;26;20006;-86
2024/04/15 06:24:50;;;;;;;7.03;3.33;;;8.00;99.90;;;;;;5492938;26;20007;-86
2024/04/15 06:27:18;;;;;;;8.73;2.78;;;8.10;99.90;;;;;;5434091;26;20097;-87
2024/04/15 06:29:45;;;;;;;11.65;3.25;;;9.20;99.90;;;;;;5441814;26;20003;-88
2024/04/15 06:32:12;;;;;;;15.98;3.80;;;8.20;99.90;;;;;;5484787;26;20007;-87
2024/04/15 06:34:39;;;;;;;8.13;3.58;;;8.40;99.90;;;;;;5444796;26;20023;-86
2024/04/15 06:37:05;;;;;;;8.88;3.13;;;8.30;99.90;;;;;;5455168;26;20080;-87
2024/04/15 06:39:33;;;;;;;10.00;3.65;;;8.40;99.90;;;;;;5471787;26;20018;-83
2024/04/15 06:42:00;;;;;;;10.40;3.15;;;8.50;99.90;;;;;;5460703;26;20097;-85
2024/04/15 06:44:27;;;;;;;13.05;3.83;;;8.50;99.90;;;;;;5434412;26;20007;-85
2024/04/15 06:46:54;;;;;;;16.02;4.15;;;8.60;99.90;;;;;;5411089;26;20524;-85
2024/04/15 06:49:22;;;;;;;14.60;3.72;;;9.00;99.90;;;;;;5457016;26;20074;-85
2024/04/15 06:51:48;;;;;;;9.95;3.20;;;8.70;99.90;;;;;;5426902;26;20463;-85
2024/04/15 06:54:15;;;;;;;11.38;3.30;;;8.70;99.90;;;;;;5430341;26;20018;-84
2024/04/15 06:56:42;;;;;;;8.80;3.30;;;8.80;99.90;;;;;;5459954;26;20006;-85
2024/04/15 06:59:09;;;;;;;9.05;2.90;;;8.80;99.90;;;;;;5459655;26;20003;-85
2024/04/15 07:01:36;;;;;;;13.68;3.53;;;8.80;99.90;;;;;;5474825;26;20497;-85
2024/04/15 07:04:04;;;;;;;15.65;3.53;;;9.00;99.90;;;;;;5489617;26;20006;-85
2024/04/15 07:06:31;;;;;;;9.90;3.38;;;9.30;99.90;;;;;;5488875;26;20017;-85
2024/04/15 07:08:58;;;;;;;10.82;3.83;;;9.00;99.90;;;;;;5474733;26;20103;-85
2024/04/15 07:11:24;;;;;;;11.95;3.42;;;9.00;99.90;;;;;;5456886;26;20014;-85
2024/04/15 07:13:51;;;;;;;11.77;2.97;;;9.00;99.90;;;;;;5474783;26;20480;-85
2024/04/15 07:16:18;;;;;;;9.38;3.20;;;9.10;99.90;;;;;;5434962;26;20019;-85
2024/04/15 07:18:44;;;;;;;8.57;3.47;;;9.40;99.90;;;;;;5459257;26;20010;-85
2024/04/15 07:21:11;;;;;;;8.50;3.58;;;9.70;99.90;;;;;;5488154;26;20006;-85
2024/04/15 07:23:38;;;;;;;10.90;3.58;;;9.10;99.90;;;;;;5459367;26;20006;-85
2024/04/15 07:26:05;;;;;;;8.13;3.38;;;9.20;99.90;;;;;;5456703;26;20018;-84
2024/04/15 07:28:31;;;;;;;9.68;3.33;;;9.30;99.90;;;;;;5478525;26;20007;-84
2024/04/15 07:31:02;;;;;;;13.35;4.00;;;9.30;99.90;;;;;;5452906;26;20007;-84
2024/04/15 07:33:29;;;;;;;11.27;3.45;;;9.40;99.90;;;;;;5439487;26;20007;-84
2024/04/15 07:35:59;;;;;;;8.95;3.05;;;9.40;99.90;;;;;;5456880;26;20463;-84
2024/04/15 07:38:26;;;;;;;9.50;3.17;;;9.40;99.90;;;;;;5455732;26;20019;-84
2024/04/15 07:40:56;;;;;;;9.15;3.42;;;9.40;99.90;;;;;;5475671;26;20040;-85
2024/04/15 07:43:22;;;;;;;9.70;3.47;;;9.70;99.90;;;;;;5412676;26;20007;-84
2024/04/15 07:45:49;;;;;;;17.13;3.72;;;9.70;99.90;;;;;;5455136;26;20345;-85
2024/04/15 07:48:16;;;;;;;9.38;3.05;;;10.00;99.90;;;;;;5453312;26;20084;-85
2024/04/15 07:50:43;;;;;;;20.83;4.53;;;10.20;99.90;;;;;;5456906;26;20015;-85
2024/04/15 07:53:10;;;;;;;9.75;2.90;;;10.60;99.90;;;;;;5454859;26;20007;-85
2024/04/15 07:55:37;;;;;;;11.55;2.90;;;10.40;99.90;;;;;;5406958;26;20448;-85
2024/04/15 07:58:04;;;;;;;9.65;2.70;;;10.50;99.90;;;;;;5457728;26;20018;-85
2024/04/15 08:00:32;;;;;;;9.88;3.03;;;10.50;99.90;;;;;;5493775;26;20003;-84
2024/04/15 08:02:58;;;;;;;15.57;2.97;;;10.40;99.90;;;;;;5450776;26;20013;-85
2024/04/15 08:05:25;;;;;;;10.00;2.78;;;10.40;99.90;;;;;;5464365;26;20007;-85
2024/04/15 08:07:52;;;;;;;10.50;2.70;;;10.50;99.90;;;;;;5446287;26;20527;-84
2024/04/15 08:10:20;;;;;;;15.20;2.83;;;10.60;99.90;;;;;;5449885;26;20007;-85
2024/04/15 08:12:47;;;;;;;10.13;2.92;;;11.00;99.90;;;;;;5482808;26;20529;-85
2024/04/15 08:15:14;;;;;;;9.90;2.88;;;11.00;99.90;;;;;;5447745;26;20007;-85
2024/04/15 08:17:40;;;;;;;14.23;2.67;;;11.00;99.90;;;;;;5444976;26;20018;-85
2024/04/15 08:20:08;;;;;;;9.80;2.97;;;10.90;99.90;;;;;;5424652;26;20495;-85
2024/04/15 08:22:34;;;;;;;6.85;2.47;;;10.90;99.90;;;;;;5449035;26;20007;-84
2024/04/15 08:25:08;;;;;;;9.52;2.90;;;11.00;99.90;;;;;;5472202;26;20007;-85
2024/04/15 08:27:35;;;;;;;10.40;3.05;;;11.20;99.90;;;;;;5451444;26;20018;-84
2024/04/15 08:30:02;;;;;;;8.85;2.78;;;11.10;99.90;;;;;;5455001;26;20082;-85
2024/04/15 08:32:29;;;;;;;8.52;2.50;;;11.10;99.90;;;;;;5458983;26;20043;-85
2024/04/15 08:34:56;;;;;;;11.93;3.08;;;11.20;99.90;;;;;;5468156;26;20007;-85
2024/04/15 08:37:23;;;;;;;10.27;2.75;;;11.30;99.90;;;;;;5455578;26;20017;-85
2024/04/15 08:39:50;;;;;;;7.85;2.67;;;11.40;99.90;;;;;;5474501;26;20003;-85
2024/04/15 08:42:29;;;;;;;13.20;3.20;;;11.30;99.90;;;;;;5429172;26;20007;-85
2024/04/15 08:44:59;;;;;;;8.95;3.03;;;11.50;99.90;;;;;;5484025;26;20051;-85
2024/04/15 08:47:29;;;;;;;10.65;3.00;;;11.40;99.90;;;;;;5458987;26;20007;-85
2024/04/15 08:49:59;;;;;;;13.77;3.28;;;11.40;99.90;;;;;;5429560;26;20015;-85
2024/04/15 08:52:26;;;;;;;8.20;2.47;;;11.40;99.90;;;;;;5428887;26;20007;-85
2024/04/15 08:54:54;;;;;;;11.98;2.92;;;11.50;99.90;;;;;;5446853;26;20009;-85
2024/04/15 08:57:21;;;;;;;11.48;3.05;;;11.70;99.90;;;;;;5420040;26;20018;-86
2024/04/15 08:59:49;;;;;;;14.68;3.35;;;11.80;99.90;;;;;;5437768;26;20081;-85
2024/04/15 09:02:17;;;;;;;9.48;3.00;;;11.90;99.90;;;;;;5453277;26;20449;-85
2024/04/15 09:04:44;;;;;;;7.93;3.30;;;12.00;99.90;;;;;;5449621;26;20003;-85
2024/04/15 09:07:11;;;;;;;7.00;3.05;;;11.90;99.90;;;;;;5444581;26;20084;-84
2024/04/15 09:09:38;;;;;;;8.43;3.25;;;11.90;99.90;;;;;;5445663;26;20016;-85
2024/04/15 09:12:06;;;;;;;12.07;3.08;;;12.20;99.90;;;;;;5453886;26;20088;-87
2024/04/15 09:14:32;;;;;;;9.98;3.38;;;12.30;99.90;;;;;;5445743;26;20090;-86
2024/04/15 09:17:00;;;;;;;7.65;2.80;;;12.60;99.90;;;;;;5452770;26;20481;-85
2024/04/15 09:19:26;;;;;;;6.60;2.70;;;12.90;99.90;;;;;;5448307;26;20084;-85
2024/04/15 09:22:02;;;;;;;10.60;3.03;;;13.10;99.90;;;;;;5452133;26;20465;-85
2024/04/15 09:24:29;;;;;;;12.73;2.97;;;13.20;99.90;;;;;;5434863;26;20090;-86
2024/04/15 09:26:56;;;;;;;6.70;2.33;;;13.30;99.90;;;;;;5447700;26;20449;-86
2024/04/15 09:29:23;;;;;;;5.88;2.55;;;13.40;99.90;;;;;;5427700;26;20085;-85
2024/04/15 09:31:49;;;;;;;10.70;2.33;;;13.10;99.90;;;;;;5455032;26;20018;-85
2024/04/15 09:34:16;;;;;;;9.63;2.80;;;13.00;99.90;;;;;;5449002;26;20083;-86
2024/04/15 09:36:45;;;;;;;8.57;2.70;;;12.90;99.90;;;;;;5434549;26;20040;-86
2024/04/15 09:39:13;;;;;;;12.65;3.08;;;12.90;99.90;;;;;;5451569;26;20057;-86
2024/04/15 09:41:46;;;;;;;7.75;2.78;;;12.80;99.90;;;;;;5450150;26;20022;-85
2024/04/15 09:44:13;;;;;;;10.27;2.80;;;12.70;99.90;;;;;;5447872;26;20008;-85
2024/04/15 09:46:41;;;;;;;9.27;2.55;;;12.40;99.90;;;;;;5439774;26;20008;-85
2024/04/15 09:49:13;;;;;;;8.10;2.88;;;12.30;99.90;;;;;;5451755;26;20048;-86
2024/04/15 09:51:41;;;;;;;7.45;2.20;;;12.70;99.90;;;;;;5433316;26;20040;-86
2024/04/15 09:54:10;;;;;;;7.82;2.45;;;12.40;99.90;;;;;;5432117;26;20035;-86
2024/04/15 09:56:44;;;;;;;10.43;2.53;;;12.30;99.90;;;;;;5457076;26;20483;-85
2024/04/15 09:59:15;;;;;;;8.18;2.60;;;12.50;99.90;;;;;;5445521;26;20022;-85
2024/04/15 10:01:43;;;;;;;8.73;2.78;;;12.60;99.90;;;;;;5477181;26;20015;-86
2024/04/15 10:04:21;;;;;;;9.65;2.90;;;12.80;99.90;;;;;;5444157;26;20018;-85
2024/04/15 10:06:53;;;;;;;7.15;2.63;;;12.90;99.90;;;;;;5482599;26;20007;-86
2024/04/15 10:09:21;;;;;;;7.80;3.20;;;12.90;99.90;;;;;;5460508;26;20452;-86
2024/04/15 10:11:49;;;;;;;6.43;2.70;;;13.10;99.90;;;;;;5487507;26;20448;-86
2024/04/15 10:14:16;;;;;;;5.18;2.08;;;13.20;99.90;;;;;;5452314;26;20043;-86
2024/04/15 10:16:47;;;;;;;7.50;2.45;;;13.20;99.90;;;;;;5466917;26;20026;-86
2024/04/15 10:19:24;;;;;;;8.68;2.28;;;13.50;99.90;;;;;;5458908;26;20091;-86
2024/04/15 10:21:51;;;;;;;7.93;1.80;;;13.50;99.90;;;;;;5486849;26;20023;-86
2024/04/15 10:24:18;;;;;;;8.65;1.88;;;13.60;99.90;;;;;;5477208;26;20346;-86
2024/04/15 10:26:46;;;;;;;7.25;1.67;;;13.30;99.90;;;;;;5481098;26;20007;-86
2024/04/15 10:29:18;;;;;;;4.75;1.55;;;13.40;99.90;;;;;;5454277;26;20013;-86
2024/04/15 10:31:52;;;;;;;6.97;1.90;;;13.30;99.90;;;;;;5454310;26;20366;-86
2024/04/15 10:34:25;;;;;;;7.57;1.67;;;13.00;99.90;;;;;;5479910;26;19999;-86
2024/04/15 10:36:55;;;;;;;4.75;1.75;;;13.10;99.90;;;;;;5437115;26;20072;-86
2024/04/15 10:39:23;;;;;;;4.97;1.45;;;13.10;99.90;;;;;;5448288;26;20426;-86
2024/04/15 10:41:51;;;;;;;6.28;1.70;;;13.10;99.90;;;;;;5460514;26;20017;-86
2024/04/15 10:44:17;;;;;;;3.72;1.45;;;13.00;99.90;;;;;;5480625;26;20429;-85
2024/04/15 10:46:46;;;;;;;5.63;1.48;;;13.10;99.90;;;;;;5459632;26;20017;-86
2024/04/15 10:49:14;;;;;;;4.38;1.50;;;13.10;99.90;;;;;;5436402;26;20007;-85
2024/04/15 10:51:43;;;;;;;8.48;1.63;;;13.20;99.90;;;;;;5437685;26;20007;-86
2024/04/15 10:54:10;;;;;;;5.20;1.45;;;13.10;99.90;;;;;;5434133;26;20008;-86
2024/04/15 10:56:37;;;;;;;7.05;1.30;;;13.10;99.90;;;;;;5452825;26;20017;-85
2024/04/15 10:59:04;;;;;;;3.00;1.02;;;12.90;99.90;;;;;;5453342;26;20002;-85
2024/04/15 11:01:31;;;;;;;5.75;1.10;;;13.00;99.90;;;;;;5440449;26;20355;-86
2024/04/15 11:03:57;;;;;;;7.07;1.27;;;13.10;99.90;;;;;;5474559;26;20010;-85
2024/04/15 11:06:28;;;;;;;5.63;1.70;;;13.20;99.90;;;;;;5452582;26;20453;-86
2024/04/15 11:08:58;;;;;;;6.95;1.50;;;13.10;99.90;;;;;;5458607;26;20007;-86
2024/04/15 11:11:25;;;;;;;5.75;1.80;;;13.00;99.90;;;;;;5430562;26;20011;-85
2024/04/15 11:13:51;;;;;;;6.70;1.30;;;12.80;99.90;;;;;;5443182;26;20018;-86
2024/04/15 11:16:18;;;;;;;5.90;1.65;;;12.80;99.90;;;;;;5487874;26;20006;-86
2024/04/15 11:18:45;;;;;;;3.75;1.35;;;12.60;99.90;;;;;;5440984;26;20025;-86
2024/04/15 11:21:12;;;;;;;5.00;1.48;;;12.50;99.90;;;;;;5459296;26;20015;-85
2024/04/15 11:23:39;;;;;;;6.13;1.55;;;12.40;99.90;;;;;;5456650;26;20074;-85
2024/04/15 11:26:09;;;;;;;5.70;1.40;;;12.40;99.90;;;;;;5495139;26;20030;-85
2024/04/15 11:28:36;;;;;;;5.15;1.63;;;12.40;99.90;;;;;;5453697;26;20452;-85
2024/04/15 11:31:03;;;;;;;8.73;2.22;;;12.30;99.90;;;;;;5452336;26;20000;-85
2024/04/15 11:33:30;;;;;;;6.82;3.17;;;12.30;99.90;;;;;;5460549;26;20047;-84
2024/04/15 11:35:57;;;;;;;10.13;2.05;;;12.40;99.90;;;;;;5476114;26;20015;-85
2024/04/15 11:38:26;;;;;;;3.85;1.88;;;12.30;99.90;;;;;;5458284;26;20375;-85
2024/04/15 11:40:53;;;;;;;4.22;2.13;;;12.20;99.90;;;;;;5456264;26;20007;-85
2024/04/15 11:43:20;;;;;;;9.32;2.58;;;12.00;99.90;;;;;;5491158;26;20328;-85
2024/04/15 11:45:54;;;;;;;5.05;2.45;;;11.90;99.90;;;;;;5448030;26;20015;-85
2024/04/15 11:48:22;;;;;;;7.60;2.88;;;11.20;99.90;;;;;;5458044;26;20007;-84
2024/04/15 11:50:49;;;;;;;4.95;2.75;;;10.90;99.90;;;;;;5435894;26;20048;-84
2024/04/15 11:53:24;;;;;;;8.40;3.70;;;10.60;99.90;;;;;;5454693;26;20003;-84
2024/04/15 11:55:54;;;;;;;8.93;3.40;;;10.50;99.90;;;;;;5441011;26;20115;-84
2024/04/15 11:58:22;;;;;;;6.93;3.67;;;10.70;99.90;;;;;;5486450;26;20003;-85
2024/04/15 12:00:53;;;;;;;10.18;4.00;;;10.70;99.90;;;;;;5424354;26;20010;-85
2024/04/15 12:03:21;;;;;;;7.50;3.58;;;10.20;99.90;;;;;;5453248;26;20087;-85
2024/04/15 12:05:48;;;;;;;8.80;3.47;;;10.20;99.90;;;;;;5458127;26;20038;-85
2024/04/15 12:08:19;;;;;;;10.32;4.25;;;10.20;99.90;;;;;;5454043;26;20499;-85
2024/04/15 12:10:46;;;;;;;8.13;3.72;;;10.20;99.90;;;;;;5431625;26;20475;-84
2024/04/15 12:13:13;;;;;;;5.30;3.38;;;10.30;99.90;;;;;;5458818;26;20459;-86
2024/04/15 12:15:40;;;;;;;8.30;3.95;;;10.30;99.90;;;;;;5472160;26;20010;-85
2024/04/15 12:18:07;;;;;;;7.75;3.83;;;10.30;99.90;;;;;;5436879;26;20351;-85
2024/04/15 12:20:34;;;;;;;9.10;3.90;;;10.30;99.90;;;;;;5470380;26;20347;-85
2024/04/15 12:23:01;;;;;;;9.13;4.60;;;10.40;99.90;;;;;;5470600;26;20018;-85
2024/04/15 12:25:28;;;;;;;7.55;3.85;;;10.50;99.90;;;;;;5477495;26;20007;-85
2024/04/15 12:27:54;;;;;;;9.55;4.10;;;10.60;99.90;;;;;;5451304;26;20007;-84
2024/04/15 12:30:22;;;;;;;8.60;4.22;;;10.40;99.90;;;;;;5473820;26;20059;-85
2024/04/15 12:32:48;;;;;;;7.40;3.75;;;10.30;99.90;;;;;;5470075;26;20019;-86
2024/04/15 12:35:15;;;;;;;9.05;3.97;;;10.30;99.90;;;;;;5458493;26;20008;-85
2024/04/15 12:37:43;;;;;;;8.30;4.05;;;10.20;99.90;;;;;;5430552;26;20007;-85
2024/04/15 12:40:11;;;;;;;9.07;3.67;;;10.30;99.90;;;;;;5446329;26;20007;-85
2024/04/15 12:42:43;;;;;;;9.20;3.60;;;10.30;99.90;;;;;;5458448;26;20033;-85
2024/04/15 12:45:09;;;;;;;8.05;3.30;;;10.40;99.90;;;;;;5463190;26;20011;-85
2024/04/15 12:47:36;;;;;;;9.15;3.30;;;10.40;99.90;;;;;;5486573;26;20042;-85
2024/04/15 12:50:04;;;;;;;8.30;3.38;;;10.50;99.90;;;;;;5463754;26;20007;-85
2024/04/15 12:52:31;;;;;;;7.55;3.00;;;10.60;99.90;;;;;;5458562;26;20054;-85
2024/04/15 12:54:59;;;;;;;7.38;2.90;;;11.20;99.90;;;;;;5472718;26;20353;-86